sensor_id;sensor_type;location;lat;lon;timestamp;pressure;altitude;pressure_sealevel;temperature;humidity
75049;BME280;63803;53.120;8.764;2023-03-01T00:01:18;103320.09;;;22.20;31.84
75049;BME280;63803;53.120;8.764;2023-03-01T00:03:44;103319.06;;;22.21;31.72
75049;BME280;63803;53.120;8.764;2023-03-01T00:06:10;103319.91;;;22.22;32.27
75049;BME280;63803;53.120;8.764;2023-03-01T00:08:36;103318.91;;;22.23;31.96
75049;BME280;63803;53.120;8.764;2023-03-01T00:11:27;103321.63;;;22.23;31.62
75049;BME280;63803;53.120;8.764;2023-03-01T00:13:53;103315.34;;;22.22;31.55
75049;BME280;63803;53.120;8.764;2023-03-01T00:16:30;103315.50;;;22.20;31.74
75049;BME280;63803;53.120;8.764;2023-03-01T00:18:57;103311.78;;;22.22;31.64
75049;BME280;63803;53.120;8.764;2023-03-01T00:21:24;103309.06;;;22.22;31.87
75049;BME280;63803;53.120;8.764;2023-03-01T00:23:50;103301.94;;;22.20;31.94
75049;BME280;63803;53.120;8.764;2023-03-01T00:26:17;103301.78;;;22.22;31.99
75049;BME280;63803;53.120;8.764;2023-03-01T00:28:43;103303.78;;;22.20;31.31
75049;BME280;63803;53.120;8.764;2023-03-01T00:31:13;103301.94;;;22.20;31.78
75049;BME280;63803;53.120;8.764;2023-03-01T00:33:39;103303.63;;;22.22;31.60
75049;BME280;63803;53.120;8.764;2023-03-01T00:36:05;103302.09;;;22.19;32.01
75049;BME280;63803;53.120;8.764;2023-03-01T00:38:37;103298.38;;;22.20;31.88
75049;BME280;63803;53.120;8.764;2023-03-01T00:41:05;103304.66;;;22.20;31.91
75049;BME280;63803;53.120;8.764;2023-03-01T00:43:31;103301.94;;;22.20;31.72
75049;BME280;63803;53.120;8.764;2023-03-01T00:46:27;103296.66;;;22.19;31.68
75049;BME280;63803;53.120;8.764;2023-03-01T00:48:55;103298.53;;;22.18;31.66
75049;BME280;63803;53.120;8.764;2023-03-01T00:51:23;103299.22;;;22.20;31.69
75049;BME280;63803;53.120;8.764;2023-03-01T00:53:51;103297.50;;;22.19;31.76
75049;BME280;63803;53.120;8.764;2023-03-01T00:56:17;103291.94;;;22.21;31.84
75049;BME280;63803;53.120;8.764;2023-03-01T00:58:43;103297.34;;;22.21;31.61
75049;BME280;63803;53.120;8.764;2023-03-01T01:01:15;103291.94;;;22.21;31.55
75049;BME280;63803;53.120;8.764;2023-03-01T01:04:05;103299.06;;;22.22;31.72
75049;BME280;63803;53.120;8.764;2023-03-01T01:06:33;103286.50;;;22.21;31.96
75049;BME280;63803;53.120;8.764;2023-03-01T01:08:59;103291.78;;;22.23;31.81
75049;BME280;63803;53.120;8.764;2023-03-01T01:11:27;103295.81;;;22.18;31.98
75049;BME280;63803;53.120;8.764;2023-03-01T01:13:54;103294.81;;;22.19;31.39
75049;BME280;63803;53.120;8.764;2023-03-01T01:16:21;103287.34;;;22.22;31.68
75049;BME280;63803;53.120;8.764;2023-03-01T01:18:47;103285.66;;;22.20;31.75
75049;BME280;63803;53.120;8.764;2023-03-01T01:21:15;103292.94;;;22.20;31.36
75049;BME280;63803;53.120;8.764;2023-03-01T01:23:42;103277.66;;;22.19;31.28
75049;BME280;63803;53.120;8.764;2023-03-01T01:26:34;103282.25;;;22.18;31.96
75049;BME280;63803;53.120;8.764;2023-03-01T01:29:01;103278.34;;;22.21;31.35
75049;BME280;63803;53.120;8.764;2023-03-01T01:31:27;103272.59;;;22.16;31.52
75049;BME280;63803;53.120;8.764;2023-03-01T01:33:54;103272.41;;;22.17;31.51
75049;BME280;63803;53.120;8.764;2023-03-01T01:36:20;103273.25;;;22.18;31.58
75049;BME280;63803;53.120;8.764;2023-03-01T01:38:46;103271.56;;;22.17;31.49
75049;BME280;63803;53.120;8.764;2023-03-01T01:41:12;103268.69;;;22.18;31.59
75049;BME280;63803;53.120;8.764;2023-03-01T01:43:41;103266.81;;;22.19;31.45
75049;BME280;63803;53.120;8.764;2023-03-01T01:46:19;103254.25;;;22.18;31.53
75049;BME280;63803;53.120;8.764;2023-03-01T01:49:10;103256.81;;;22.19;31.89
75049;BME280;63803;53.120;8.764;2023-03-01T01:51:38;103242.38;;;22.19;31.62
75049;BME280;63803;53.120;8.764;2023-03-01T01:54:25;103242.53;;;22.17;31.18
75049;BME280;63803;53.120;8.764;2023-03-01T01:56:56;103243.22;;;22.19;31.58
75049;BME280;63803;53.120;8.764;2023-03-01T01:59:24;103245.94;;;22.19;31.85
75049;BME280;63803;53.120;8.764;2023-03-01T02:01:51;103230.03;;;22.16;31.35
75049;BME280;63803;53.120;8.764;2023-03-01T02:04:17;103238.66;;;22.20;31.70
75049;BME280;63803;53.120;8.764;2023-03-01T02:06:55;103237.97;;;22.18;31.26
75049;BME280;63803;53.120;8.764;2023-03-01T02:09:25;103236.97;;;22.19;31.56
75049;BME280;63803;53.120;8.764;2023-03-01T02:11:51;103222.88;;;22.15;31.31
75049;BME280;63803;53.120;8.764;2023-03-01T02:14:17;103222.69;;;22.17;31.42
75049;BME280;63803;53.120;8.764;2023-03-01T02:16:43;103229.81;;;22.18;31.24
75049;BME280;63803;53.120;8.764;2023-03-01T02:19:14;103226.09;;;22.19;31.20
75049;BME280;63803;53.120;8.764;2023-03-01T02:25:08;103224.59;;;22.16;31.24
75049;BME280;63803;53.120;8.764;2023-03-01T02:30:25;103221.69;;;22.18;31.75
75049;BME280;63803;53.120;8.764;2023-03-01T02:32:54;103224.59;;;22.16;31.45
75049;BME280;63803;53.120;8.764;2023-03-01T02:35:32;103226.25;;;22.17;31.10
75049;BME280;63803;53.120;8.764;2023-03-01T02:38:00;103222.88;;;22.15;31.56
75049;BME280;63803;53.120;8.764;2023-03-01T02:40:28;103220.84;;;22.17;31.52
75049;BME280;63803;53.120;8.764;2023-03-01T02:42:57;103223.75;;;22.16;31.61
75049;BME280;63803;53.120;8.764;2023-03-01T02:45:22;103221.69;;;22.18;31.25
75049;BME280;63803;53.120;8.764;2023-03-01T02:47:48;103212.03;;;22.15;30.89
75049;BME280;63803;53.120;8.764;2023-03-01T02:50:40;103223.06;;;22.14;31.30
75049;BME280;63803;53.120;8.764;2023-03-01T02:55:58;103219.31;;;22.15;31.35
75049;BME280;63803;53.120;8.764;2023-03-01T02:58:24;103216.78;;;22.13;31.35
75049;BME280;63803;53.120;8.764;2023-03-01T03:00:50;103211.34;;;22.13;31.20
75049;BME280;63803;53.120;8.764;2023-03-01T03:03:20;103215.59;;;22.16;31.10
75049;BME280;63803;53.120;8.764;2023-03-01T03:05:46;103221.19;;;22.14;31.29
75049;BME280;63803;53.120;8.764;2023-03-01T03:08:12;103213.22;;;22.13;30.97
75049;BME280;63803;53.120;8.764;2023-03-01T03:10:40;103224.06;;;22.13;31.17
75049;BME280;63803;53.120;8.764;2023-03-01T03:13:11;103206.94;;;22.12;30.88
75049;BME280;63803;53.120;8.764;2023-03-01T03:15:39;103204.91;;;22.14;31.53
75049;BME280;63803;53.120;8.764;2023-03-01T03:18:08;103208.63;;;22.13;31.39
75049;BME280;63803;53.120;8.764;2023-03-01T03:20:34;103212.19;;;22.14;30.96
75049;BME280;63803;53.120;8.764;2023-03-01T03:23:00;103211.03;;;22.16;31.41
75049;BME280;63803;53.120;8.764;2023-03-01T03:25:27;103209.31;;;22.15;30.97
75049;BME280;63803;53.120;8.764;2023-03-01T03:27:53;103206.59;;;22.15;31.03
75049;BME280;63803;53.120;8.764;2023-03-01T03:30:23;103196.06;;;22.12;31.11
75049;BME280;63803;53.120;8.764;2023-03-01T03:32:48;103199.63;;;22.13;30.89
75049;BME280;63803;53.120;8.764;2023-03-01T03:35:24;103197.63;;;22.15;31.38
75049;BME280;63803;53.120;8.764;2023-03-01T03:37:51;103195.22;;;22.12;31.08
75049;BME280;63803;53.120;8.764;2023-03-01T03:40:43;103190.81;;;22.11;31.03
75049;BME280;63803;53.120;8.764;2023-03-01T03:43:12;103187.09;;;22.12;30.96
75049;BME280;63803;53.120;8.764;2023-03-01T03:45:38;103176.06;;;22.13;30.87
75049;BME280;63803;53.120;8.764;2023-03-01T03:48:05;103186.06;;;22.13;31.35
75049;BME280;63803;53.120;8.764;2023-03-01T03:50:31;103178.78;;;22.13;31.21
75049;BME280;63803;53.120;8.764;2023-03-01T03:52:57;103171.81;;;22.11;30.86
75049;BME280;63803;53.120;8.764;2023-03-01T03:55:23;103177.09;;;22.12;31.14
75049;BME280;63803;53.120;8.764;2023-03-01T03:57:53;103172.66;;;22.11;31.39
75049;BME280;63803;53.120;8.764;2023-03-01T04:00:21;103165.22;;;22.13;31.53
75049;BME280;63803;53.120;8.764;2023-03-01T04:02:49;103159.78;;;22.13;30.73
75049;BME280;63803;53.120;8.764;2023-03-01T04:05:17;103174.22;;;22.14;30.77
75049;BME280;63803;53.120;8.764;2023-03-01T04:07:43;103167.25;;;22.11;31.02
75049;BME280;63803;53.120;8.764;2023-03-01T04:10:12;103163.50;;;22.12;30.88
75049;BME280;63803;53.120;8.764;2023-03-01T04:12:37;103171.66;;;22.12;31.14
75049;BME280;63803;53.120;8.764;2023-03-01T04:15:05;103168.94;;;22.12;31.33
75049;BME280;63803;53.120;8.764;2023-03-01T04:17:45;103159.94;;;22.12;30.92
75049;BME280;63803;53.120;8.764;2023-03-01T04:22:38;103164.53;;;22.11;31.18
75049;BME280;63803;53.120;8.764;2023-03-01T04:25:04;103162.16;;;22.08;31.01
75049;BME280;63803;53.120;8.764;2023-03-01T04:27:34;103155.91;;;22.08;30.83
75049;BME280;63803;53.120;8.764;2023-03-01T04:30:00;103162.81;;;22.10;31.03
75049;BME280;63803;53.120;8.764;2023-03-01T04:32:25;103169.94;;;22.11;30.87
75049;BME280;63803;53.120;8.764;2023-03-01T04:34:51;103168.09;;;22.12;30.90
75049;BME280;63803;53.120;8.764;2023-03-01T04:37:16;103160.47;;;22.07;31.01
75049;BME280;63803;53.120;8.764;2023-03-01T04:42:17;103156.38;;;22.11;31.00
75049;BME280;63803;53.120;8.764;2023-03-01T04:44:43;103150.09;;;22.11;30.81
75049;BME280;63803;53.120;8.764;2023-03-01T04:47:09;103159.09;;;22.11;30.83
75049;BME280;63803;53.120;8.764;2023-03-01T04:49:34;103149.94;;;22.12;31.15
75049;BME280;63803;53.120;8.764;2023-03-01T04:52:00;103142.81;;;22.11;30.63
75049;BME280;63803;53.120;8.764;2023-03-01T04:54:33;103141.97;;;22.11;30.91
75049;BME280;63803;53.120;8.764;2023-03-01T04:57:00;103141.13;;;22.10;31.05
75049;BME280;63803;53.120;8.764;2023-03-01T05:01:52;103135.03;;;22.08;30.73
75049;BME280;63803;53.120;8.764;2023-03-01T05:04:17;103136.53;;;22.11;31.14
75049;BME280;63803;53.120;8.764;2023-03-01T05:06:43;103128.75;;;22.08;31.20
75049;BME280;63803;53.120;8.764;2023-03-01T05:09:09;103135.03;;;22.08;30.82
75049;BME280;63803;53.120;8.764;2023-03-01T05:14:04;103134.34;;;22.06;30.76
75049;BME280;63803;53.120;8.764;2023-03-01T05:16:30;103137.75;;;22.08;30.70
75049;BME280;63803;53.120;8.764;2023-03-01T05:21:22;103148.59;;;22.08;30.74
75049;BME280;63803;53.120;8.764;2023-03-01T05:23:47;103143.19;;;22.08;31.04
75049;BME280;63803;53.120;8.764;2023-03-01T05:26:13;103146.53;;;22.10;31.02
75049;BME280;63803;53.120;8.764;2023-03-01T05:28:39;103144.00;;;22.09;30.58
75049;BME280;63803;53.120;8.764;2023-03-01T05:31:05;103146.06;;;22.07;30.55
75049;BME280;63803;53.120;8.764;2023-03-01T05:33:38;103141.47;;;22.07;30.93
75049;BME280;63803;53.120;8.764;2023-03-01T05:36:05;103147.75;;;22.08;31.00
75049;BME280;63803;53.120;8.764;2023-03-01T05:38:31;103142.31;;;22.08;30.59
75049;BME280;63803;53.120;8.764;2023-03-01T05:40:57;103141.47;;;22.07;30.67
75049;BME280;63803;53.120;8.764;2023-03-01T05:43:22;103150.47;;;22.08;30.80
75049;BME280;63803;53.120;8.764;2023-03-01T05:45:48;103144.19;;;22.07;31.14
75049;BME280;63803;53.120;8.764;2023-03-01T05:48:13;103146.06;;;22.07;30.83
75049;BME280;63803;53.120;8.764;2023-03-01T05:50:41;103136.06;;;22.07;30.81
75049;BME280;63803;53.120;8.764;2023-03-01T05:53:11;103136.06;;;22.07;30.92
75049;BME280;63803;53.120;8.764;2023-03-01T05:55:38;103134.34;;;22.06;31.07
75049;BME280;63803;53.120;8.764;2023-03-01T05:58:06;103134.34;;;22.06;31.09
75049;BME280;63803;53.120;8.764;2023-03-01T06:00:34;103143.34;;;22.07;30.89
75049;BME280;63803;53.120;8.764;2023-03-01T06:03:00;103139.09;;;22.04;30.56
75049;BME280;63803;53.120;8.764;2023-03-01T06:05:26;103149.78;;;22.06;30.85
75049;BME280;63803;53.120;8.764;2023-03-01T06:07:53;103145.19;;;22.06;31.00
75049;BME280;63803;53.120;8.764;2023-03-01T06:10:20;103151.66;;;22.05;30.99
75049;BME280;63803;53.120;8.764;2023-03-01T06:12:46;103150.78;;;22.05;31.18
75049;BME280;63803;53.120;8.764;2023-03-01T06:15:14;103151.47;;;22.07;30.80
75049;BME280;63803;53.120;8.764;2023-03-01T06:17:42;103159.47;;;22.08;30.51
75049;BME280;63803;53.120;8.764;2023-03-01T06:20:19;103162.34;;;22.07;30.69
75049;BME280;63803;53.120;8.764;2023-03-01T06:22:45;103161.31;;;22.08;30.73
75049;BME280;63803;53.120;8.764;2023-03-01T06:25:13;103158.59;;;22.08;30.79
75049;BME280;63803;53.120;8.764;2023-03-01T06:27:40;103160.47;;;22.07;31.05
75049;BME280;63803;53.120;8.764;2023-03-01T06:30:06;103157.91;;;22.06;30.84
75049;BME280;63803;53.120;8.764;2023-03-01T06:32:33;103162.66;;;22.04;30.79
75049;BME280;63803;53.120;8.764;2023-03-01T06:34:59;103156.22;;;22.05;30.26
75049;BME280;63803;53.120;8.764;2023-03-01T06:37:27;103152.50;;;22.06;30.83
75049;BME280;63803;53.120;8.764;2023-03-01T06:39:52;103153.50;;;22.05;30.82
75049;BME280;63803;53.120;8.764;2023-03-01T06:42:18;103151.66;;;22.05;30.97
75049;BME280;63803;53.120;8.764;2023-03-01T06:44:44;103155.38;;;22.04;30.86
75049;BME280;63803;53.120;8.764;2023-03-01T06:47:09;103150.28;;;22.01;30.90
75049;BME280;63803;53.120;8.764;2023-03-01T06:49:35;103145.53;;;22.03;30.73
75049;BME280;63803;53.120;8.764;2023-03-01T06:52:00;103144.34;;;22.06;31.00
75049;BME280;63803;53.120;8.764;2023-03-01T06:54:26;103148.94;;;22.13;31.06
75049;BME280;63803;53.120;8.764;2023-03-01T06:56:51;103146.91;;;22.15;30.95
75049;BME280;63803;53.120;8.764;2023-03-01T06:59:17;103156.56;;;22.18;31.59
75049;BME280;63803;53.120;8.764;2023-03-01T07:01:43;103150.88;;;21.63;31.64
75049;BME280;63803;53.120;8.764;2023-03-01T07:04:09;103158.03;;;20.88;31.10
75049;BME280;63803;53.120;8.764;2023-03-01T07:06:35;103165.16;;;20.37;30.78
75049;BME280;63803;53.120;8.764;2023-03-01T07:09:00;103167.50;;;20.84;31.87
75049;BME280;63803;53.120;8.764;2023-03-01T07:11:26;103167.47;;;21.52;31.01
75049;BME280;63803;53.120;8.764;2023-03-01T07:13:51;103172.28;;;21.90;31.19
75049;BME280;63803;53.120;8.764;2023-03-01T07:16:17;103169.94;;;22.03;31.37
75049;BME280;63803;53.120;8.764;2023-03-01T07:18:43;103179.09;;;22.10;31.77
75049;BME280;63803;53.120;8.764;2023-03-01T07:21:09;103166.22;;;22.12;31.76
75049;BME280;63803;53.120;8.764;2023-03-01T07:23:38;103164.88;;;22.16;31.82
75049;BME280;63803;53.120;8.764;2023-03-01T07:26:03;103161.97;;;22.18;31.96
75049;BME280;63803;53.120;8.764;2023-03-01T07:28:29;103160.78;;;22.20;32.38
75049;BME280;63803;53.120;8.764;2023-03-01T07:31:00;103166.91;;;22.23;32.82
75049;BME280;63803;53.120;8.764;2023-03-01T07:33:26;103163.19;;;22.24;32.74
75049;BME280;63803;53.120;8.764;2023-03-01T07:35:57;103158.59;;;22.24;32.63
75049;BME280;63803;53.120;8.764;2023-03-01T07:38:23;103163.00;;;22.25;32.99
75049;BME280;63803;53.120;8.764;2023-03-01T07:40:48;103160.28;;;22.25;33.03
75049;BME280;63803;53.120;8.764;2023-03-01T07:43:14;103166.22;;;22.29;33.18
75049;BME280;63803;53.120;8.764;2023-03-01T07:45:39;103160.09;;;22.27;33.35
75049;BME280;63803;53.120;8.764;2023-03-01T07:48:05;103165.91;;;22.32;33.35
75049;BME280;63803;53.120;8.764;2023-03-01T07:50:30;103158.75;;;22.31;33.32
75049;BME280;63803;53.120;8.764;2023-03-01T07:52:55;103170.28;;;22.33;33.58
75049;BME280;63803;53.120;8.764;2023-03-01T07:55:21;103159.63;;;22.31;33.35
75049;BME280;63803;53.120;8.764;2023-03-01T07:57:46;103159.41;;;22.33;33.83
75049;BME280;63803;53.120;8.764;2023-03-01T08:00:12;103156.91;;;22.31;33.88
75049;BME280;63803;53.120;8.764;2023-03-01T08:02:38;103149.41;;;22.33;33.70
75049;BME280;63803;53.120;8.764;2023-03-01T08:05:05;103148.75;;;22.31;34.02
75049;BME280;63803;53.120;8.764;2023-03-01T08:07:31;103147.53;;;22.34;33.97
75049;BME280;63803;53.120;8.764;2023-03-01T08:09:56;103146.91;;;22.32;33.74
75049;BME280;63803;53.120;8.764;2023-03-01T08:12:22;103154.00;;;22.33;34.03
75049;BME280;63803;53.120;8.764;2023-03-01T08:14:47;103152.97;;;22.34;33.76
75049;BME280;63803;53.120;8.764;2023-03-01T08:17:16;103154.19;;;22.31;33.88
75049;BME280;63803;53.120;8.764;2023-03-01T08:19:42;103148.75;;;22.31;33.96
75049;BME280;63803;53.120;8.764;2023-03-01T08:22:08;103144.50;;;22.29;33.77
75049;BME280;63803;53.120;8.764;2023-03-01T08:24:33;103143.66;;;22.20;34.60
75049;BME280;63803;53.120;8.764;2023-03-01T08:26:59;103149.78;;;22.30;34.21
75049;BME280;63803;53.120;8.764;2023-03-01T08:29:27;103147.91;;;22.31;34.02
75049;BME280;63803;53.120;8.764;2023-03-01T08:31:52;103150.09;;;22.27;34.43
75049;BME280;63803;53.120;8.764;2023-03-01T08:34:18;103143.13;;;22.25;34.14
75049;BME280;63803;53.120;8.764;2023-03-01T08:36:45;103142.31;;;22.32;33.93
75049;BME280;63803;53.120;8.764;2023-03-01T08:39:13;103140.63;;;22.31;34.04
75049;BME280;63803;53.120;8.764;2023-03-01T08:41:39;103131.78;;;22.29;34.05
75049;BME280;63803;53.120;8.764;2023-03-01T08:44:05;103127.22;;;22.30;34.40
75049;BME280;63803;53.120;8.764;2023-03-01T08:46:36;103128.06;;;22.30;34.29
75049;BME280;63803;53.120;8.764;2023-03-01T08:49:07;103128.06;;;22.30;34.29
75049;BME280;63803;53.120;8.764;2023-03-01T08:51:32;103127.03;;;22.31;34.09
75049;BME280;63803;53.120;8.764;2023-03-01T08:54:03;103127.91;;;22.32;34.26
75049;BME280;63803;53.120;8.764;2023-03-01T08:56:29;103128.06;;;22.30;34.40
75049;BME280;63803;53.120;8.764;2023-03-01T08:58:54;103126.84;;;22.33;34.08
75049;BME280;63803;53.120;8.764;2023-03-01T09:01:20;103128.91;;;22.31;34.07
75049;BME280;63803;53.120;8.764;2023-03-01T09:03:46;103120.75;;;22.31;34.58
75049;BME280;63803;53.120;8.764;2023-03-01T09:06:12;103131.63;;;22.31;34.21
75049;BME280;63803;53.120;8.764;2023-03-01T09:08:43;103123.47;;;22.31;33.92
75049;BME280;63803;53.120;8.764;2023-03-01T09:11:12;103115.16;;;22.32;34.13
75049;BME280;63803;53.120;8.764;2023-03-01T09:13:39;103113.97;;;22.35;34.21
75049;BME280;63803;53.120;8.764;2023-03-01T09:16:06;103117.34;;;22.37;34.40
75049;BME280;63803;53.120;8.764;2023-03-01T09:18:33;103117.34;;;22.37;34.04
75049;BME280;63803;53.120;8.764;2023-03-01T09:21:13;103113.78;;;22.36;34.45
75049;BME280;63803;53.120;8.764;2023-03-01T09:23:41;103119.91;;;22.38;34.49
75049;BME280;63803;53.120;8.764;2023-03-01T09:26:16;103125.66;;;22.35;34.22
75049;BME280;63803;53.120;8.764;2023-03-01T09:28:44;103125.16;;;22.40;34.05
75049;BME280;63803;53.120;8.764;2023-03-01T09:31:25;103129.75;;;22.39;34.40
75049;BME280;63803;53.120;8.764;2023-03-01T09:33:53;103120.91;;;22.37;34.53
75049;BME280;63803;53.120;8.764;2023-03-01T09:36:22;103124.47;;;22.38;34.30
75049;BME280;63803;53.120;8.764;2023-03-01T09:38:49;103121.75;;;22.38;34.31
75049;BME280;63803;53.120;8.764;2023-03-01T09:44:03;103130.94;;;22.37;34.31
75049;BME280;63803;53.120;8.764;2023-03-01T09:46:39;103136.19;;;22.38;34.47
75049;BME280;63803;53.120;8.764;2023-03-01T09:49:12;103128.22;;;22.37;34.61
75049;BME280;63803;53.120;8.764;2023-03-01T09:51:39;103129.06;;;22.37;34.15
75049;BME280;63803;53.120;8.764;2023-03-01T09:54:05;103124.66;;;22.36;34.49
75049;BME280;63803;53.120;8.764;2023-03-01T09:56:37;103130.94;;;22.37;34.08
75049;BME280;63803;53.120;8.764;2023-03-01T10:04:51;103121.41;;;22.41;34.40
75049;BME280;63803;53.120;8.764;2023-03-01T10:07:48;103117.84;;;22.40;33.95
75049;BME280;63803;53.120;8.764;2023-03-01T10:10:36;103111.22;;;22.43;34.03
75049;BME280;63803;53.120;8.764;2023-03-01T10:13:37;103114.78;;;22.43;33.89
75049;BME280;63803;53.120;8.764;2023-03-01T10:16:16;103104.94;;;22.42;34.55
75049;BME280;63803;53.120;8.764;2023-03-01T10:18:43;103106.81;;;22.42;34.50
75049;BME280;63803;53.120;8.764;2023-03-01T10:21:17;103111.06;;;22.44;34.09
75049;BME280;63803;53.120;8.764;2023-03-01T10:23:43;103106.66;;;22.43;33.89
75049;BME280;63803;53.120;8.764;2023-03-01T10:29:04;103105.47;;;22.46;33.95
75049;BME280;63803;53.120;8.764;2023-03-01T10:31:42;103095.78;;;22.43;33.88
75049;BME280;63803;53.120;8.764;2023-03-01T10:34:17;103098.34;;;22.45;34.18
75049;BME280;63803;53.120;8.764;2023-03-01T10:36:47;103102.06;;;22.44;34.47
75049;BME280;63803;53.120;8.764;2023-03-01T10:39:19;103099.19;;;22.45;34.08
75049;BME280;63803;53.120;8.764;2023-03-01T10:42:05;103096.09;;;22.48;34.19
75049;BME280;63803;53.120;8.764;2023-03-01T10:44:47;103091.72;;;22.47;34.31
75049;BME280;63803;53.120;8.764;2023-03-01T10:47:26;103095.94;;;22.50;34.31
75049;BME280;63803;53.120;8.764;2023-03-01T10:49:57;103097.78;;;22.49;34.18
75049;BME280;63803;53.120;8.764;2023-03-01T10:52:41;103088.81;;;22.49;34.22
75049;BME280;63803;53.120;8.764;2023-03-01T10:57:39;103099.66;;;22.49;34.05
75049;BME280;63803;53.120;8.764;2023-03-01T11:00:16;103098.47;;;22.51;33.87
75049;BME280;63803;53.120;8.764;2023-03-01T11:02:51;103100.50;;;22.49;34.30
75049;BME280;63803;53.120;8.764;2023-03-01T11:05:20;103097.78;;;22.49;33.86
75049;BME280;63803;53.120;8.764;2023-03-01T11:07:53;103097.78;;;22.49;34.26
75049;BME280;63803;53.120;8.764;2023-03-01T11:10:30;103100.34;;;22.51;34.24
75049;BME280;63803;53.120;8.764;2023-03-01T11:13:26;103100.34;;;22.51;33.66
75049;BME280;63803;53.120;8.764;2023-03-01T11:16:06;103101.03;;;22.53;33.96
75049;BME280;63803;53.120;8.764;2023-03-01T11:18:33;103093.06;;;22.51;34.20
75049;BME280;63803;53.120;8.764;2023-03-01T11:21:01;103087.63;;;22.51;33.89
75049;BME280;63803;53.120;8.764;2023-03-01T11:23:28;103093.72;;;22.53;34.19
75049;BME280;63803;53.120;8.764;2023-03-01T11:26:00;103083.88;;;22.52;33.76
75049;BME280;63803;53.120;8.764;2023-03-01T11:28:29;103089.16;;;22.54;34.19
75049;BME280;63803;53.120;8.764;2023-03-01T11:30:56;103082.19;;;22.51;34.00
75049;BME280;63803;53.120;8.764;2023-03-01T11:36:32;103081.34;;;22.51;34.25
75049;BME280;63803;53.120;8.764;2023-03-01T11:41:39;103076.94;;;22.50;34.04
75049;BME280;63803;53.120;8.764;2023-03-01T11:44:16;103074.03;;;22.51;34.18
75049;BME280;63803;53.120;8.764;2023-03-01T11:58:02;103057.59;;;22.53;33.83
75049;BME280;63803;53.120;8.764;2023-03-01T12:00:57;103055.88;;;22.52;33.74
75049;BME280;63803;53.120;8.764;2023-03-01T12:03:51;103063.00;;;22.53;33.99
75049;BME280;63803;53.120;8.764;2023-03-01T12:08:58;103053.84;;;22.54;33.86
75049;BME280;63803;53.120;8.764;2023-03-01T12:25:16;103037.72;;;22.52;33.81
75049;BME280;63803;53.120;8.764;2023-03-01T12:36:39;103016.84;;;22.53;33.72
75049;BME280;63803;53.120;8.764;2023-03-01T12:42:00;103009.91;;;22.50;33.89
75049;BME280;63803;53.120;8.764;2023-03-01T12:50:25;103008.03;;;22.51;34.17
75049;BME280;63803;53.120;8.764;2023-03-01T12:52:56;103002.75;;;22.49;33.69
75049;BME280;63803;53.120;8.764;2023-03-01T12:55:31;102997.34;;;22.49;34.00
75049;BME280;63803;53.120;8.764;2023-03-01T12:58:07;102993.78;;;22.49;33.85
75049;BME280;63803;53.120;8.764;2023-03-01T13:00:45;102999.03;;;22.50;34.18
75049;BME280;63803;53.120;8.764;2023-03-01T13:03:25;102995.31;;;22.51;34.18
75049;BME280;63803;53.120;8.764;2023-03-01T13:09:03;102991.91;;;22.49;34.11
75049;BME280;63803;53.120;8.764;2023-03-01T13:11:32;102981.03;;;22.49;34.10
75049;BME280;63803;53.120;8.764;2023-03-01T13:16:52;102979.81;;;22.60;34.15
75049;BME280;63803;53.120;8.764;2023-03-01T13:19:23;102971.97;;;22.65;33.97
75049;BME280;63803;53.120;8.764;2023-03-01T13:21:50;102971.06;;;22.73;33.40
75049;BME280;63803;53.120;8.764;2023-03-01T13:24:35;102970.69;;;22.06;38.86
75049;BME280;63803;53.120;8.764;2023-03-01T13:32:19;102962.41;;;21.99;37.81
75049;BME280;63803;53.120;8.764;2023-03-01T13:34:53;102960.19;;;22.03;37.38
75049;BME280;63803;53.120;8.764;2023-03-01T13:37:21;102961.97;;;22.27;36.99
75049;BME280;63803;53.120;8.764;2023-03-01T13:39:48;102957.16;;;22.45;37.61
75049;BME280;63803;53.120;8.764;2023-03-01T13:42:35;102956.59;;;22.49;36.76
75049;BME280;63803;53.120;8.764;2023-03-01T13:45:05;102944.06;;;22.48;37.84
75049;BME280;63803;53.120;8.764;2023-03-01T13:47:38;102945.22;;;22.54;37.85
75049;BME280;63803;53.120;8.764;2023-03-01T13:50:04;102933.34;;;22.55;37.30
75049;BME280;63803;53.120;8.764;2023-03-01T13:53:00;102936.72;;;22.57;37.16
75049;BME280;63803;53.120;8.764;2023-03-01T13:55:40;102943.16;;;22.56;37.88
75049;BME280;63803;53.120;8.764;2023-03-01T13:58:33;102943.84;;;22.58;38.30
75049;BME280;63803;53.120;8.764;2023-03-01T14:01:38;102931.28;;;22.57;38.11
75049;BME280;63803;53.120;8.764;2023-03-01T14:04:20;102937.38;;;22.59;38.42
75049;BME280;63803;53.120;8.764;2023-03-01T14:06:46;102930.25;;;22.58;38.57
75049;BME280;63803;53.120;8.764;2023-03-01T14:09:16;102924.81;;;22.58;38.57
75049;BME280;63803;53.120;8.764;2023-03-01T14:19:55;102926.53;;;22.59;39.71
75049;BME280;63803;53.120;8.764;2023-03-01T14:22:34;102918.03;;;22.62;39.25
75049;BME280;63803;53.120;8.764;2023-03-01T14:25:05;102905.47;;;22.61;39.85
75049;BME280;63803;53.120;8.764;2023-03-01T14:27:41;102909.72;;;22.64;39.99
75049;BME280;63803;53.120;8.764;2023-03-01T14:30:21;102902.38;;;22.64;40.15
75049;BME280;63803;53.120;8.764;2023-03-01T14:32:58;102897.78;;;22.65;40.20
75049;BME280;63803;53.120;8.764;2023-03-01T14:35:30;102898.34;;;22.60;41.03
75049;BME280;63803;53.120;8.764;2023-03-01T14:37:55;102895.63;;;22.60;40.50
75049;BME280;63803;53.120;8.764;2023-03-01T14:40:31;102879.34;;;22.60;40.52
75049;BME280;63803;53.120;8.764;2023-03-01T14:42:59;102884.28;;;22.56;40.71
75049;BME280;63803;53.120;8.764;2023-03-01T14:45:27;102883.97;;;22.51;40.69
75049;BME280;63803;53.120;8.764;2023-03-01T14:47:54;102879.56;;;22.50;40.18
75049;BME280;63803;53.120;8.764;2023-03-01T14:50:29;102881.81;;;22.47;40.66